Time;durP1;ratioP1;P1;durP2;ratioP2;P2;SDS_P1;SDS_P2;PMS_P1;PMS_P2;Temp;Humidity;BMP_temperature;BMP_pressure;BME280_temperature;BME280_humidity;BME280_pressure;Samples;Min_cycle;Max_cycle;Signal;HPM_P1;HPM_P2
2021/01/12 00:01:18;;;;;;;2.80;0.30;;;8.00;99.90;;;;;;4865072;29;20268;-92
2021/01/12 00:03:52;;;;;;;0.60;0.37;;;7.90;99.90;;;;;;4860611;29;20241;-94
2021/01/12 00:06:23;;;;;;;2.87;0.30;;;7.90;99.90;;;;;;4862105;29;20264;-92
2021/01/12 00:08:57;;;;;;;1.93;0.40;;;7.90;99.90;;;;;;4863155;29;20226;-96
2021/01/12 00:11:41;;;;;;;0.30;0.30;;;7.90;99.90;;;;;;4875198;29;20214;-96
2021/01/12 00:14:34;;;;;;;0.70;0.40;;;7.90;99.90;;;;;;4873377;29;20231;-95
2021/01/12 00:17:06;;;;;;;0.50;0.50;;;7.90;99.90;;;;;;4863818;29;20290;-94
2021/01/12 00:19:38;;;;;;;0.97;0.50;;;7.80;99.90;;;;;;4868447;29;20215;-95
2021/01/12 00:22:14;;;;;;;0.93;0.50;;;7.80;99.90;;;;;;4859331;29;20230;-95
2021/01/12 00:24:45;;;;;;;0.30;0.30;;;7.80;99.90;;;;;;4850097;29;20212;-93
2021/01/12 00:27:16;;;;;;;1.17;0.50;;;7.70;99.90;;;;;;4862232;29;20223;-90
2021/01/12 00:29:49;;;;;;;0.70;0.47;;;7.60;99.90;;;;;;4868741;29;20211;-91
2021/01/12 00:32:22;;;;;;;0.60;0.30;;;7.60;99.90;;;;;;4868955;29;20247;-91
2021/01/12 00:34:56;;;;;;;0.33;0.30;;;7.60;99.90;;;;;;4870469;29;20253;-94
2021/01/12 00:37:28;;;;;;;0.40;0.30;;;7.50;99.90;;;;;;4849547;29;20252;-94
2021/01/12 00:40:01;;;;;;;1.07;0.20;;;7.60;99.90;;;;;;4856571;29;20229;-94
2021/01/12 00:42:32;;;;;;;0.10;0.10;;;7.60;99.90;;;;;;4862285;29;20207;-94
2021/01/12 00:45:06;;;;;;;0.97;0.20;;;7.60;99.90;;;;;;4859752;29;20247;-94
2021/01/12 00:47:37;;;;;;;0.57;0.30;;;7.50;99.90;;;;;;4850357;29;20277;-93
2021/01/12 00:50:09;;;;;;;0.60;0.30;;;7.50;99.90;;;;;;4849460;29;20320;-92
2021/01/12 00:52:40;;;;;;;2.20;0.40;;;7.50;99.90;;;;;;4850079;29;20211;-92
2021/01/12 00:55:11;;;;;;;0.73;0.37;;;7.50;99.90;;;;;;4868072;29;20241;-93
2021/01/12 00:57:42;;;;;;;0.93;0.37;;;7.40;99.90;;;;;;4864840;29;20235;-92
2021/01/12 01:00:16;;;;;;;0.60;0.23;;;7.40;99.90;;;;;;4867871;29;20210;-93
2021/01/12 01:02:47;;;;;;;0.30;0.20;;;7.40;99.90;;;;;;4866915;29;20213;-92
2021/01/12 01:05:18;;;;;;;0.30;0.20;;;7.40;99.90;;;;;;4867280;29;20238;-91
2021/01/12 01:07:49;;;;;;;2.10;0.20;;;7.50;99.90;;;;;;4878871;29;20205;-91
2021/01/12 01:10:20;;;;;;;1.40;0.20;;;7.40;99.90;;;;;;4880916;29;20225;-94
2021/01/12 01:12:51;;;;;;;0.47;0.27;;;7.40;99.90;;;;;;4868262;29;20219;-94
2021/01/12 01:15:24;;;;;;;1.87;0.40;;;7.40;99.90;;;;;;4867912;29;20692;-92
2021/01/12 01:17:54;;;;;;;0.23;0.20;;;7.40;99.90;;;;;;4868371;29;20325;-94
2021/01/12 01:20:25;;;;;;;0.40;0.37;;;7.40;99.90;;;;;;4859755;29;20222;-93
2021/01/12 01:22:56;;;;;;;1.57;0.40;;;7.40;99.90;;;;;;4850830;29;20211;-94
2021/01/12 01:25:27;;;;;;;0.20;0.20;;;7.40;99.90;;;;;;4867732;29;20247;-92
2021/01/12 01:27:57;;;;;;;0.97;0.20;;;7.40;99.90;;;;;;4866037;29;20274;-91
2021/01/12 01:30:29;;;;;;;0.20;0.20;;;7.40;99.90;;;;;;4866852;29;20224;-92
2021/01/12 01:33:00;;;;;;;1.20;0.30;;;7.30;99.90;;;;;;4867234;29;20724;-91
2021/01/12 01:35:31;;;;;;;0.30;0.30;;;7.40;99.90;;;;;;4866478;29;20288;-93
2021/01/12 01:38:02;;;;;;;0.60;0.30;;;7.30;99.90;;;;;;4866515;29;20332;-90
2021/01/12 01:40:32;;;;;;;0.77;0.20;;;7.30;99.90;;;;;;4868951;29;20348;-94
2021/01/12 01:43:05;;;;;;;1.33;0.30;;;7.30;99.90;;;;;;4863198;29;20210;-96
2021/01/12 01:45:40;;;;;;;1.57;0.30;;;7.30;99.90;;;;;;4872700;29;20226;-96
2021/01/12 01:48:12;;;;;;;0.30;0.30;;;7.20;99.90;;;;;;4851554;29;20225;-96
2021/01/12 01:50:44;;;;;;;1.20;0.50;;;7.30;99.90;;;;;;4868216;29;20214;-96
2021/01/12 01:53:16;;;;;;;0.43;0.37;;;7.20;99.90;;;;;;4875124;29;20195;-96
2021/01/12 01:55:54;;;;;;;0.40;0.23;;;7.20;99.90;;;;;;4882025;29;20245;-96
2021/01/12 01:58:24;;;;;;;0.10;0.10;;;7.30;99.90;;;;;;4882861;29;20239;-95
2021/01/12 02:00:59;;;;;;;0.20;0.20;;;7.30;99.90;;;;;;4876892;29;20219;-94
2021/01/12 02:03:37;;;;;;;0.27;0.20;;;7.30;99.90;;;;;;4868160;29;20218;-95
2021/01/12 02:06:18;;;;;;;0.90;0.40;;;7.20;99.90;;;;;;4867343;29;20214;-95
2021/01/12 02:09:02;;;;;;;0.50;0.30;;;7.20;99.90;;;;;;4860303;29;20206;-96
2021/01/12 02:11:37;;;;;;;0.60;0.20;;;7.20;99.90;;;;;;4868267;29;20215;-94
2021/01/12 02:14:18;;;;;;;1.33;0.20;;;7.10;99.90;;;;;;4860052;29;20214;-96
2021/01/12 02:16:52;;;;;;;1.43;0.30;;;7.20;99.90;;;;;;4862061;29;20734;-95
2021/01/12 02:19:32;;;;;;;0.87;0.30;;;7.20;99.90;;;;;;4863940;29;20211;-95
2021/01/12 02:22:08;;;;;;;1.63;0.33;;;7.20;99.90;;;;;;4866140;29;20207;-94
2021/01/12 02:27:34;;;;;;;0.47;0.30;;;7.10;99.90;;;;;;4868237;29;20211;-94
2021/01/12 02:30:29;;;;;;;0.77;0.40;;;7.10;99.90;;;;;;4877642;29;20218;-95
2021/01/12 03:04:33;;;;;;;2.40;0.40;;;7.20;99.90;;;;;;4855663;29;20276;-95
2021/01/12 03:07:49;;;;;;;1.20;0.20;;;7.20;99.90;;;;;;4861145;29;20204;-96
2021/01/12 03:13:39;;;;;;;0.93;0.30;;;7.20;99.90;;;;;;4862077;29;20233;-96
2021/01/12 03:16:51;;;;;;;0.50;0.30;;;7.30;99.90;;;;;;4864778;29;20198;-94
2021/01/12 03:19:25;;;;;;;0.30;0.30;;;7.20;99.90;;;;;;4854328;29;20246;-93
2021/01/12 03:21:56;;;;;;;0.60;0.40;;;7.30;99.90;;;;;;4854831;29;20279;-96
2021/01/12 03:24:28;;;;;;;0.60;0.40;;;7.20;99.90;;;;;;4856528;29;20207;-96
2021/01/12 03:27:00;;;;;;;0.50;0.40;;;7.30;99.90;;;;;;4854962;29;20237;-96
2021/01/12 03:29:33;;;;;;;0.30;0.20;;;7.30;99.90;;;;;;4855089;29;20306;-95
2021/01/12 03:32:05;;;;;;;8.67;0.40;;;7.30;99.90;;;;;;4855235;29;20212;-95
2021/01/12 03:34:36;;;;;;;1.00;0.40;;;7.30;99.90;;;;;;4855055;29;20215;-95
2021/01/12 03:37:07;;;;;;;0.50;0.30;;;7.30;99.90;;;;;;4856088;29;20325;-96
2021/01/12 03:39:40;;;;;;;1.53;0.40;;;7.30;99.90;;;;;;4852207;29;20315;-96
2021/01/12 03:42:11;;;;;;;1.13;0.30;;;7.30;99.90;;;;;;4853774;29;20212;-96
2021/01/12 03:44:43;;;;;;;0.60;0.47;;;7.30;99.90;;;;;;4849954;29;20204;-95
2021/01/12 03:47:13;;;;;;;0.37;0.30;;;7.30;99.90;;;;;;4854661;29;20255;-96
2021/01/12 03:49:45;;;;;;;2.27;0.40;;;7.30;99.90;;;;;;4853899;29;20222;-96
2021/01/12 03:52:16;;;;;;;0.40;0.40;;;7.20;99.90;;;;;;4855551;29;20215;-95
2021/01/12 03:54:47;;;;;;;0.57;0.23;;;7.30;99.90;;;;;;4856472;29;20279;-96
2021/01/12 03:57:18;;;;;;;0.60;0.30;;;7.20;99.90;;;;;;4855789;29;20246;-96
2021/01/12 03:59:49;;;;;;;0.93;0.47;;;7.20;99.90;;;;;;4853460;29;20211;-95
2021/01/12 04:02:22;;;;;;;0.83;0.27;;;7.20;99.90;;;;;;4855449;29;20290;-95
2021/01/12 04:04:57;;;;;;;0.57;0.40;;;7.20;99.90;;;;;;4855834;29;20203;-94
2021/01/12 04:07:28;;;;;;;1.13;0.30;;;7.20;99.90;;;;;;4855863;29;20204;-93
2021/01/12 04:10:01;;;;;;;0.10;0.10;;;7.20;99.90;;;;;;4845130;29;20207;-94
2021/01/12 04:12:32;;;;;;;0.50;0.20;;;7.20;99.90;;;;;;4845916;29;20211;-94
2021/01/12 04:15:03;;;;;;;1.00;0.30;;;7.20;99.90;;;;;;4846665;29;20294;-95
2021/01/12 04:20:24;;;;;;;2.00;0.30;;;7.20;99.90;;;;;;4858245;29;20209;-94
2021/01/12 04:22:55;;;;;;;1.30;0.30;;;7.20;99.90;;;;;;4853708;29;20215;-96
2021/01/12 04:25:30;;;;;;;0.50;0.30;;;7.10;99.90;;;;;;4863699;29;20208;-95
2021/01/12 04:31:11;;;;;;;1.23;0.40;;;7.10;99.90;;;;;;4869874;29;20218;-96
2021/01/12 04:33:42;;;;;;;0.57;0.40;;;7.10;99.90;;;;;;4846450;29;20235;-94
2021/01/12 04:36:13;;;;;;;0.30;0.27;;;7.10;99.90;;;;;;4870620;29;20211;-95
2021/01/12 04:38:45;;;;;;;0.60;0.40;;;7.10;99.90;;;;;;4854738;29;20299;-95
2021/01/12 04:41:39;;;;;;;3.60;0.57;;;7.10;99.90;;;;;;4862383;29;20239;-96
2021/01/12 04:44:11;;;;;;;1.70;0.43;;;7.10;99.90;;;;;;4857655;29;20210;-96
2021/01/12 04:47:03;;;;;;;0.53;0.30;;;7.10;99.90;;;;;;4861051;29;20191;-96
2021/01/12 04:49:48;;;;;;;0.40;0.20;;;7.10;99.90;;;;;;4857828;29;20196;-96
2021/01/12 04:52:23;;;;;;;0.73;0.40;;;7.00;99.90;;;;;;4868626;29;20232;-96
2021/01/12 04:55:02;;;;;;;0.60;0.37;;;7.10;99.90;;;;;;4861856;29;20213;-96
2021/01/12 04:57:36;;;;;;;1.73;0.50;;;7.00;99.90;;;;;;4862538;29;20240;-95
2021/01/12 05:00:17;;;;;;;0.57;0.30;;;7.00;99.90;;;;;;4864075;29;20207;-96
2021/01/12 05:03:09;;;;;;;1.93;0.40;;;7.00;99.90;;;;;;4862129;29;20244;-96
2021/01/12 05:05:41;;;;;;;2.10;0.50;;;7.00;99.90;;;;;;4861640;29;20532;-94
2021/01/12 05:08:18;;;;;;;1.20;0.40;;;7.00;99.90;;;;;;4861505;29;20219;-95
2021/01/12 05:13:49;;;;;;;0.53;0.40;;;7.00;99.90;;;;;;4860325;29;20277;-95
2021/01/12 05:16:28;;;;;;;0.50;0.30;;;7.00;99.90;;;;;;4863276;29;20203;-96
2021/01/12 05:19:20;;;;;;;0.40;0.37;;;7.00;99.90;;;;;;4859550;29;20224;-95
2021/01/12 05:22:00;;;;;;;0.30;0.20;;;7.00;99.90;;;;;;4860747;29;20191;-96
2021/01/12 05:24:42;;;;;;;1.90;0.20;;;7.00;99.90;;;;;;4866435;29;20256;-96
2021/01/12 05:27:17;;;;;;;0.20;0.20;;;7.00;99.90;;;;;;4849268;29;20196;-96
2021/01/12 05:30:03;;;;;;;0.10;0.10;;;7.00;99.90;;;;;;4862618;29;20259;-96
2021/01/12 05:32:36;;;;;;;0.20;0.20;;;7.00;99.90;;;;;;4863203;29;20237;-96
2021/01/12 05:35:08;;;;;;;0.10;0.10;;;7.00;99.90;;;;;;4863001;29;20262;-95
2021/01/12 05:37:45;;;;;;;0.30;0.20;;;7.00;99.90;;;;;;4862329;29;20250;-94
2021/01/12 05:40:23;;;;;;;0.40;0.10;;;7.00;99.90;;;;;;4858950;29;20208;-95
2021/01/12 05:45:59;;;;;;;0.43;0.20;;;7.00;99.90;;;;;;4861968;29;20192;-96
2021/01/12 05:48:34;;;;;;;0.73;0.10;;;7.10;99.90;;;;;;4859319;29;20263;-96
2021/01/12 05:51:08;;;;;;;0.20;0.10;;;7.00;99.90;;;;;;4862717;29;20208;-96
2021/01/12 05:54:06;;;;;;;0.10;0.10;;;7.10;99.90;;;;;;4868569;29;20204;-96
2021/01/12 05:56:49;;;;;;;0.10;0.10;;;7.10;99.90;;;;;;4861385;29;20218;-96
2021/01/12 05:59:37;;;;;;;0.27;0.10;;;7.10;99.90;;;;;;4864621;29;20696;-96
2021/01/12 06:02:22;;;;;;;0.10;0.10;;;7.10;99.90;;;;;;4854175;29;20211;-95
2021/01/12 06:04:56;;;;;;;0.20;0.20;;;7.20;99.90;;;;;;4856765;29;20276;-93
2021/01/12 06:07:28;;;;;;;0.10;0.10;;;7.20;99.90;;;;;;4856930;29;20202;-95
2021/01/12 06:10:12;;;;;;;0.73;0.30;;;7.20;99.90;;;;;;4858317;29;20236;-95
2021/01/12 06:12:49;;;;;;;0.10;0.10;;;7.20;99.90;;;;;;4859793;29;20208;-96
2021/01/12 06:15:22;;;;;;;0.30;0.30;;;7.20;99.90;;;;;;4857777;29;20245;-94
2021/01/12 06:18:06;;;;;;;0.10;0.10;;;7.20;99.90;;;;;;4856828;29;20239;-95
2021/01/12 06:24:21;;;;;;;0.30;0.20;;;7.30;99.90;;;;;;4859608;29;20222;-96
2021/01/12 06:27:00;;;;;;;1.07;0.10;;;7.30;99.90;;;;;;4858386;29;20240;-96
2021/01/12 06:29:48;;;;;;;1.37;0.20;;;7.30;99.90;;;;;;4859713;29;20646;-96
2021/01/12 06:32:19;;;;;;;0.20;0.10;;;7.30;99.90;;;;;;4864139;29;20226;-96
2021/01/12 06:34:58;;;;;;;0.20;0.20;;;7.30;99.90;;;;;;4845610;29;20252;-95
2021/01/12 06:37:29;;;;;;;0.60;0.20;;;7.30;99.90;;;;;;4859161;29;20256;-94
2021/01/12 06:40:00;;;;;;;0.83;0.37;;;7.30;99.90;;;;;;4841908;29;20222;-95
2021/01/12 06:42:34;;;;;;;0.23;0.23;;;7.30;99.90;;;;;;4860013;29;20599;-96
2021/01/12 06:45:07;;;;;;;1.53;0.30;;;7.30;99.90;;;;;;4842642;29;20203;-95
2021/01/12 06:47:40;;;;;;;0.63;0.33;;;7.30;99.90;;;;;;4853261;29;20211;-96
2021/01/12 06:50:14;;;;;;;0.13;0.13;;;7.30;99.90;;;;;;4850091;29;20211;-96
2021/01/12 06:52:46;;;;;;;0.10;0.10;;;7.30;99.90;;;;;;4855868;29;20215;-96
2021/01/12 06:55:19;;;;;;;0.30;0.20;;;7.30;99.90;;;;;;4856311;29;20298;-96
2021/01/12 06:57:53;;;;;;;0.10;0.10;;;7.30;99.90;;;;;;4852028;29;20261;-96
2021/01/12 07:00:27;;;;;;;0.20;0.20;;;7.30;99.90;;;;;;4857537;29;20218;-95
2021/01/12 07:02:59;;;;;;;0.20;0.20;;;7.30;99.90;;;;;;4858402;29;20241;-95
2021/01/12 07:05:40;;;;;;;0.20;0.20;;;7.40;99.90;;;;;;4854981;29;20283;-95
2021/01/12 07:08:12;;;;;;;0.20;0.20;;;7.40;99.90;;;;;;4853611;29;20217;-95
2021/01/12 07:10:47;;;;;;;0.20;0.20;;;7.40;99.90;;;;;;4857290;29;20223;-95
2021/01/12 07:13:18;;;;;;;0.20;0.20;;;7.40;99.90;;;;;;4855326;29;20274;-94
2021/01/12 07:15:49;;;;;;;0.30;0.20;;;7.40;99.90;;;;;;4852101;29;20218;-94
2021/01/12 07:18:35;;;;;;;1.03;0.30;;;7.40;99.90;;;;;;4855898;29;20302;-95
2021/01/12 07:21:13;;;;;;;0.10;0.10;;;7.40;99.90;;;;;;4843980;29;20215;-93
2021/01/12 07:23:44;;;;;;;1.07;0.10;;;7.40;99.90;;;;;;4852316;29;20213;-94
2021/01/12 07:26:20;;;;;;;0.23;0.20;;;7.40;99.90;;;;;;4860330;29;20210;-96
2021/01/12 07:28:52;;;;;;;0.23;0.20;;;7.40;99.90;;;;;;4854927;29;20214;-96
2021/01/12 07:31:30;;;;;;;0.40;0.23;;;7.40;99.90;;;;;;4857310;29;20215;-95
2021/01/12 07:34:01;;;;;;;0.63;0.40;;;7.40;99.90;;;;;;4858521;29;20202;-95
2021/01/12 07:36:37;;;;;;;0.73;0.20;;;7.40;99.90;;;;;;4937789;23;20260;-94
2021/01/12 07:39:08;;;;;;;0.77;0.50;;;7.30;99.90;;;;;;4873456;29;20265;-94
2021/01/12 07:41:40;;;;;;;0.37;0.23;;;7.30;99.90;;;;;;4873466;29;20265;-94
2021/01/12 07:44:18;;;;;;;1.17;0.53;;;7.30;99.90;;;;;;4878594;29;20222;-95
2021/01/12 07:46:52;;;;;;;0.63;0.40;;;7.40;99.90;;;;;;4874137;29;20266;-95
2021/01/12 07:49:27;;;;;;;1.27;0.33;;;7.40;99.90;;;;;;4876817;29;20211;-96
2021/01/12 07:52:09;;;;;;;1.87;0.53;;;7.40;99.90;;;;;;4876499;29;20230;-95
2021/01/12 07:54:42;;;;;;;2.47;0.77;;;7.40;99.90;;;;;;4871840;29;20210;-95
2021/01/12 07:57:12;;;;;;;0.77;0.40;;;7.40;99.90;;;;;;4874912;29;20221;-94
2021/01/12 07:59:46;;;;;;;0.60;0.30;;;7.40;99.90;;;;;;4880047;29;20236;-94
2021/01/12 08:02:18;;;;;;;2.80;0.50;;;7.40;99.90;;;;;;4879217;29;20222;-94
2021/01/12 08:04:49;;;;;;;2.13;0.40;;;7.40;99.90;;;;;;4879359;29;21619;-95
2021/01/12 08:15:15;;;;;;;0.40;0.30;;;7.40;99.90;;;;;;4857077;29;20260;-96
2021/01/12 08:17:52;;;;;;;2.60;0.40;;;7.40;99.90;;;;;;4859388;29;20586;-96
2021/01/12 08:20:24;;;;;;;0.77;0.20;;;7.30;99.90;;;;;;4855207;29;20241;-96
2021/01/12 08:22:57;;;;;;;1.07;0.27;;;7.40;99.90;;;;;;4860186;29;20211;-94
2021/01/12 08:25:28;;;;;;;0.20;0.20;;;7.40;99.90;;;;;;4844313;29;20212;-95
2021/01/12 08:28:00;;;;;;;0.30;0.20;;;7.40;99.90;;;;;;4861484;29;20238;-96
2021/01/12 08:30:40;;;;;;;0.20;0.20;;;7.40;99.90;;;;;;4853791;29;20232;-96
2021/01/12 08:33:14;;;;;;;0.30;0.20;;;7.40;99.90;;;;;;4852358;29;20230;-96
2021/01/12 08:35:49;;;;;;;0.20;0.20;;;7.40;99.90;;;;;;4855831;29;20381;-95
2021/01/12 08:38:27;;;;;;;1.70;0.20;;;7.40;99.90;;;;;;4848903;29;20347;-94
2021/01/12 08:40:59;;;;;;;0.20;0.20;;;7.40;99.90;;;;;;4854976;29;20287;-95
2021/01/12 08:43:31;;;;;;;0.20;0.20;;;7.50;99.90;;;;;;4859830;29;20216;-95
2021/01/12 08:46:07;;;;;;;0.60;0.40;;;7.50;99.90;;;;;;4862049;29;20214;-96
2021/01/12 08:48:48;;;;;;;0.20;0.20;;;7.50;99.90;;;;;;4864544;29;20223;-96
2021/01/12 08:51:24;;;;;;;0.30;0.20;;;7.60;99.90;;;;;;4865663;29;20199;-95
2021/01/12 08:53:56;;;;;;;1.20;0.20;;;7.60;99.90;;;;;;4864667;29;20844;-94
2021/01/12 08:56:29;;;;;;;0.20;0.20;;;7.60;99.90;;;;;;4849411;29;20194;-95
2021/01/12 08:59:08;;;;;;;0.20;0.20;;;7.60;99.90;;;;;;4858421;29;20310;-93
2021/01/12 09:01:42;;;;;;;3.27;0.30;;;7.60;99.90;;;;;;4860163;29;20240;-95
2021/01/12 09:04:15;;;;;;;0.73;0.50;;;7.60;99.90;;;;;;4847026;29;20230;-95
2021/01/12 09:06:47;;;;;;;0.87;0.20;;;7.60;99.90;;;;;;4854354;29;20213;-96
2021/01/12 09:09:23;;;;;;;1.40;0.20;;;7.60;99.90;;;;;;4859868;29;20270;-96
2021/01/12 09:12:12;;;;;;;0.40;0.20;;;7.60;99.90;;;;;;4857601;29;20225;-96
2021/01/12 09:14:50;;;;;;;1.03;0.23;;;7.60;99.90;;;;;;4860831;29;20228;-95
2021/01/12 09:17:23;;;;;;;0.80;0.27;;;7.60;99.90;;;;;;4857442;29;20215;-95
2021/01/12 09:19:57;;;;;;;1.53;0.30;;;7.60;99.90;;;;;;4860294;29;20285;-95
2021/01/12 09:22:32;;;;;;;7.03;0.50;;;7.60;99.90;;;;;;4859303;29;20204;-96
2021/01/12 09:25:05;;;;;;;0.20;0.20;;;7.60;99.90;;;;;;4859774;29;20266;-95
2021/01/12 09:27:49;;;;;;;1.40;0.30;;;7.60;99.90;;;;;;4856055;29;20304;-95
2021/01/12 09:30:25;;;;;;;1.53;0.30;;;7.60;99.90;;;;;;4856763;29;20231;-96
2021/01/12 09:33:00;;;;;;;21.63;2.00;;;7.60;99.90;;;;;;4857865;29;20234;-94
2021/01/12 09:35:34;;;;;;;0.90;0.30;;;7.50;99.90;;;;;;4855193;29;20214;-94
2021/01/12 09:38:05;;;;;;;1.30;0.30;;;7.60;99.90;;;;;;4857343;29;20238;-94
2021/01/12 09:40:36;;;;;;;1.80;0.37;;;7.60;99.90;;;;;;4858319;29;20215;-95
2021/01/12 09:43:08;;;;;;;0.20;0.13;;;7.60;99.90;;;;;;4856083;29;20275;-94
2021/01/12 09:45:39;;;;;;;30.50;1.77;;;7.60;99.90;;;;;;4858259;29;20196;-95
2021/01/12 09:48:15;;;;;;;5.10;0.30;;;7.60;99.90;;;;;;4857901;29;20282;-95
2021/01/12 09:50:46;;;;;;;0.40;0.20;;;7.50;99.90;;;;;;4856664;29;20744;-95
2021/01/12 09:53:17;;;;;;;3.17;0.37;;;7.60;99.90;;;;;;4858245;29;20218;-95
2021/01/12 09:55:48;;;;;;;1.27;0.20;;;7.60;99.90;;;;;;4858240;29;20214;-95
2021/01/12 09:58:27;;;;;;;6.67;0.30;;;7.60;99.90;;;;;;4858299;29;20805;-95
2021/01/12 10:00:58;;;;;;;1.83;0.10;;;7.70;99.90;;;;;;4857571;29;20221;-95
2021/01/12 10:03:31;;;;;;;0.30;0.20;;;7.70;99.90;;;;;;4850444;29;20227;-95
2021/01/12 10:06:04;;;;;;;0.17;0.17;;;7.70;99.90;;;;;;4854186;29;20208;-95
2021/01/12 10:08:38;;;;;;;0.40;0.30;;;7.80;99.90;;;;;;4855573;29;20211;-96
2021/01/12 10:11:29;;;;;;;0.50;0.30;;;7.80;99.90;;;;;;4856853;29;20221;-96
2021/01/12 10:14:00;;;;;;;0.10;0.10;;;7.80;99.90;;;;;;4855248;29;20294;-95
2021/01/12 10:16:34;;;;;;;0.73;0.20;;;7.80;99.90;;;;;;4858753;29;20211;-95
2021/01/12 10:19:07;;;;;;;2.93;0.20;;;7.80;99.90;;;;;;4858278;29;20262;-94
2021/01/12 10:21:38;;;;;;;1.90;0.40;;;7.70;99.90;;;;;;4858042;29;20313;-95
2021/01/12 10:24:10;;;;;;;2.40;0.20;;;7.70;99.90;;;;;;4859003;29;20215;-94
2021/01/12 10:26:55;;;;;;;0.40;0.20;;;7.70;99.90;;;;;;4857742;29;20234;-93
2021/01/12 10:29:26;;;;;;;0.53;0.30;;;7.70;99.90;;;;;;4856261;29;20211;-93
2021/01/12 10:31:57;;;;;;;2.93;0.40;;;7.70;99.90;;;;;;4855585;29;20241;-94
2021/01/12 10:34:32;;;;;;;2.57;0.20;;;7.80;99.90;;;;;;4856461;29;20233;-93
2021/01/12 10:37:02;;;;;;;0.30;0.10;;;7.80;99.90;;;;;;4853785;29;20204;-94
2021/01/12 10:39:41;;;;;;;2.73;0.40;;;7.80;99.90;;;;;;4856040;29;20246;-93
2021/01/12 10:42:15;;;;;;;1.33;0.20;;;7.80;99.90;;;;;;4856773;29;20222;-94
2021/01/12 10:44:49;;;;;;;1.70;0.20;;;7.90;99.90;;;;;;4852482;29;20557;-94
2021/01/12 10:47:21;;;;;;;1.70;0.20;;;7.80;99.90;;;;;;4857888;29;20210;-96
2021/01/12 10:49:53;;;;;;;3.60;0.20;;;7.90;99.90;;;;;;4857172;29;20264;-95
2021/01/12 10:52:25;;;;;;;0.20;0.20;;;7.90;99.90;;;;;;4859595;29;20222;-92
2021/01/12 10:54:58;;;;;;;5.27;0.37;;;7.80;99.90;;;;;;4859067;29;20218;-95
2021/01/12 10:57:29;;;;;;;14.30;0.83;;;7.90;99.90;;;;;;4857534;29;20242;-93
2021/01/12 11:00:01;;;;;;;1.43;0.30;;;7.80;99.90;;;;;;4858675;29;20234;-94
2021/01/12 11:02:39;;;;;;;0.43;0.20;;;7.80;99.90;;;;;;4860893;29;20296;-92
2021/01/12 11:05:12;;;;;;;1.30;0.20;;;7.80;99.90;;;;;;4862928;29;20218;-94
2021/01/12 11:07:46;;;;;;;28.83;1.60;;;7.80;99.90;;;;;;4864497;29;20191;-94
2021/01/12 11:10:17;;;;;;;2.63;0.30;;;7.80;99.90;;;;;;4865041;29;20272;-93
2021/01/12 11:12:50;;;;;;;2.23;0.30;;;7.80;99.90;;;;;;4861008;29;20196;-96
2021/01/12 11:15:24;;;;;;;3.50;0.30;;;7.80;99.90;;;;;;4846707;29;20235;-93
2021/01/12 11:17:55;;;;;;;2.27;0.20;;;7.80;99.90;;;;;;4853431;29;20203;-96
2021/01/12 11:20:28;;;;;;;1.40;0.27;;;7.80;99.90;;;;;;4865642;29;20196;-96
2021/01/12 11:23:00;;;;;;;1.33;0.20;;;7.80;99.90;;;;;;4864968;29;20231;-96
2021/01/12 11:25:32;;;;;;;0.97;0.20;;;7.80;99.90;;;;;;4861769;29;20195;-96
2021/01/12 11:28:03;;;;;;;4.17;0.20;;;7.80;99.90;;;;;;4858834;29;20218;-95
2021/01/12 11:30:34;;;;;;;1.70;0.33;;;7.80;99.90;;;;;;4857603;29;20247;-94
2021/01/12 11:33:11;;;;;;;1.23;0.20;;;7.80;99.90;;;;;;4860433;29;20212;-95
2021/01/12 11:35:44;;;;;;;0.37;0.10;;;7.80;99.90;;;;;;4859229;29;20249;-95
2021/01/12 11:38:14;;;;;;;0.10;0.10;;;7.80;99.90;;;;;;4855603;29;20238;-95
2021/01/12 11:40:45;;;;;;;0.37;0.20;;;7.80;99.90;;;;;;4862942;29;20217;-95
2021/01/12 11:43:16;;;;;;;2.17;0.20;;;7.80;99.90;;;;;;4860642;29;20198;-94
2021/01/12 11:45:47;;;;;;;1.70;0.30;;;7.90;99.90;;;;;;4861861;29;20295;-96
2021/01/12 11:48:18;;;;;;;0.20;0.10;;;7.90;99.90;;;;;;4858447;29;20242;-95
2021/01/12 11:50:49;;;;;;;0.20;0.10;;;7.80;99.90;;;;;;4863430;29;20214;-96
2021/01/12 11:53:20;;;;;;;0.13;0.10;;;7.80;99.90;;;;;;4862662;29;20196;-96
2021/01/12 11:55:51;;;;;;;1.30;0.20;;;7.80;99.90;;;;;;4861405;29;20282;-96
2021/01/12 11:58:22;;;;;;;0.77;0.30;;;7.90;99.90;;;;;;4861218;29;20224;-96
2021/01/12 12:00:52;;;;;;;0.97;0.10;;;7.90;99.90;;;;;;4860205;29;20228;-94
2021/01/12 12:03:25;;;;;;;0.30;0.10;;;7.90;99.90;;;;;;4863074;29;20220;-94
2021/01/12 12:05:57;;;;;;;11.23;0.30;;;7.90;99.90;;;;;;4863845;29;20198;-95
2021/01/12 12:08:28;;;;;;;5.00;0.23;;;7.90;99.90;;;;;;4861044;29;20208;-95
2021/01/12 12:11:04;;;;;;;2.53;0.23;;;7.90;99.90;;;;;;4851863;29;20192;-95
2021/01/12 12:13:39;;;;;;;3.90;0.33;;;7.90;99.90;;;;;;4856164;29;20215;-95
2021/01/12 12:16:19;;;;;;;0.10;0.10;;;8.00;99.90;;;;;;4863592;29;20203;-95
2021/01/12 12:18:51;;;;;;;0.10;0.10;;;8.00;99.90;;;;;;4857958;29;20241;-95
2021/01/12 12:21:25;;;;;;;2.77;0.20;;;8.00;99.90;;;;;;4862499;29;20231;-96
2021/01/12 12:23:56;;;;;;;1.50;0.10;;;8.00;99.90;;;;;;4863627;29;20553;-96
2021/01/12 12:26:28;;;;;;;2.80;0.20;;;8.00;99.90;;;;;;4863893;29;20238;-96
2021/01/12 12:28:59;;;;;;;0.93;0.20;;;8.00;99.90;;;;;;4851818;29;20238;-96
2021/01/12 12:31:33;;;;;;;2.77;0.60;;;8.00;99.90;;;;;;4853672;29;21465;-96
2021/01/12 12:34:07;;;;;;;1.83;0.20;;;8.00;99.90;;;;;;4858510;29;20296;-95
2021/01/12 12:36:43;;;;;;;2.13;0.30;;;8.10;99.90;;;;;;4857481;29;20255;-95
2021/01/12 12:39:16;;;;;;;0.17;0.10;;;8.10;99.90;;;;;;4858272;29;20231;-96
2021/01/12 12:42:12;;;;;;;1.37;0.10;;;8.10;99.90;;;;;;4859409;29;20271;-95
2021/01/12 12:44:48;;;;;;;10.37;0.30;;;8.20;99.90;;;;;;4859179;29;20257;-93
2021/01/12 12:47:23;;;;;;;6.07;0.50;;;8.10;99.90;;;;;;4859964;29;20216;-95
2021/01/12 12:49:53;;;;;;;5.00;0.40;;;8.10;99.90;;;;;;4856969;29;20301;-95
2021/01/12 12:52:26;;;;;;;1.70;0.10;;;8.20;99.90;;;;;;4855754;29;20211;-96
2021/01/12 12:54:57;;;;;;;14.17;0.67;;;8.10;99.90;;;;;;4860933;29;20218;-96
2021/01/12 12:57:29;;;;;;;4.30;0.40;;;8.20;99.90;;;;;;4860083;29;20305;-95
2021/01/12 13:00:08;;;;;;;0.10;0.10;;;8.10;99.90;;;;;;4859687;29;20223;-95
2021/01/12 13:02:41;;;;;;;0.37;0.17;;;8.20;99.90;;;;;;4859552;29;20216;-95
2021/01/12 13:05:13;;;;;;;0.60;0.10;;;8.20;99.90;;;;;;4859772;29;20287;-95
2021/01/12 13:07:48;;;;;;;0.20;0.00;;;8.30;99.90;;;;;;4850314;29;20269;-95
2021/01/12 13:10:22;;;;;;;0.13;0.13;;;8.50;99.90;;;;;;4858727;29;20214;-95
2021/01/12 13:12:54;;;;;;;0.60;0.10;;;8.90;99.90;;;;;;4854865;29;20211;-93
2021/01/12 13:15:26;;;;;;;0.50;0.10;;;9.00;99.90;;;;;;4854843;29;20279;-94
2021/01/12 13:17:58;;;;;;;0.63;0.10;;;9.10;99.90;;;;;;4856761;29;20237;-94
2021/01/12 13:20:32;;;;;;;1.13;0.10;;;9.30;99.90;;;;;;4853106;29;20248;-96
2021/01/12 13:23:05;;;;;;;0.43;0.33;;;9.40;99.90;;;;;;4857093;29;20214;-96
2021/01/12 13:25:39;;;;;;;0.10;0.10;;;9.50;99.90;;;;;;4856191;29;20215;-94
2021/01/12 13:28:12;;;;;;;0.20;0.20;;;9.50;99.90;;;;;;4859293;29;20207;-96
2021/01/12 13:30:45;;;;;;;2.20;0.20;;;9.50;99.90;;;;;;4861135;29;20366;-94
2021/01/12 13:33:17;;;;;;;0.10;0.10;;;9.60;99.90;;;;;;4865307;29;20195;-96
2021/01/12 13:35:48;;;;;;;0.10;0.10;;;9.60;99.90;;;;;;4863707;29;20212;-96
2021/01/12 13:38:23;;;;;;;2.83;0.20;;;9.70;99.90;;;;;;4860340;29;20211;-96
2021/01/12 13:40:56;;;;;;;0.63;0.07;;;9.70;99.90;;;;;;4859241;29;20211;-93
2021/01/12 13:43:27;;;;;;;1.23;0.27;;;9.80;99.90;;;;;;4857156;29;20548;-94
2021/01/12 13:45:57;;;;;;;0.33;0.10;;;9.80;99.90;;;;;;4851281;29;20232;-94
2021/01/12 13:48:42;;;;;;;0.73;0.10;;;9.80;99.90;;;;;;4849657;29;20693;-94
2021/01/12 13:51:14;;;;;;;0.27;0.10;;;9.90;99.90;;;;;;4856258;29;20207;-95
2021/01/12 13:53:48;;;;;;;0.20;0.10;;;9.90;99.90;;;;;;4860522;29;20226;-96
2021/01/12 13:56:22;;;;;;;0.43;0.13;;;9.90;99.90;;;;;;4856555;29;20215;-94
2021/01/12 13:59:11;;;;;;;0.50;0.20;;;9.90;99.90;;;;;;4860817;29;20235;-95
2021/01/12 14:01:48;;;;;;;0.17;0.17;;;10.00;99.90;;;;;;4854181;29;20684;-94
2021/01/12 14:04:20;;;;;;;0.83;0.50;;;10.00;99.90;;;;;;4855212;29;20665;-95
2021/01/12 14:06:51;;;;;;;2.80;0.30;;;10.00;99.90;;;;;;4857585;29;20252;-95
2021/01/12 14:09:23;;;;;;;3.43;0.43;;;10.00;99.90;;;;;;4856253;29;20208;-95
2021/01/12 14:11:59;;;;;;;0.17;0.13;;;10.00;99.90;;;;;;4856251;29;20221;-96
2021/01/12 14:14:31;;;;;;;2.00;0.20;;;10.00;99.90;;;;;;4858154;29;20226;-95
2021/01/12 14:17:06;;;;;;;2.13;0.10;;;10.00;99.90;;;;;;4859515;29;20211;-96
2021/01/12 14:19:40;;;;;;;0.10;0.10;;;10.00;99.90;;;;;;4858529;29;20235;-96
2021/01/12 14:22:13;;;;;;;0.30;0.10;;;10.00;99.90;;;;;;4859387;29;20215;-96
2021/01/12 14:24:48;;;;;;;0.60;0.27;;;10.10;99.90;;;;;;4859931;29;20204;-96
2021/01/12 14:27:23;;;;;;;0.20;0.10;;;10.00;99.90;;;;;;4859424;29;20212;-96
2021/01/12 14:29:58;;;;;;;0.20;0.20;;;9.90;99.90;;;;;;4859444;29;20227;-96
2021/01/12 14:32:30;;;;;;;0.20;0.20;;;9.90;99.90;;;;;;4858599;29;20241;-96
2021/01/12 14:35:30;;;;;;;0.40;0.33;;;9.90;99.90;;;;;;4860732;29;20236;-96